Time;durP1;ratioP1;P1;durP2;ratioP2;P2;SDS_P1;SDS_P2;PMS_P1;PMS_P2;Temp;Humidity;BMP_temperature;BMP_pressure;BME280_temperature;BME280_humidity;BME280_pressure;Samples;Min_cycle;Max_cycle;Signal;HPM_P1;HPM_P2
2020/12/08 00:00:45;;;;;;;15.98;12.10;;;;;;;-3.33;76.09;98370.23;1804349;79;21548;-70
2020/12/08 00:03:13;;;;;;;19.62;11.80;;;;;;;-3.31;76.23;98373.72;1804328;79;20977;-71
2020/12/08 00:05:41;;;;;;;19.55;12.53;;;;;;;-3.31;76.26;98365.84;1804344;79;21121;-71
2020/12/08 00:08:15;;;;;;;16.30;12.47;;;;;;;-3.33;76.19;98367.60;1804253;79;20988;-72
2020/12/08 00:10:43;;;;;;;15.53;12.00;;;;;;;-3.34;76.22;98364.57;1804531;79;21331;-71
2020/12/08 00:13:10;;;;;;;18.45;13.62;;;;;;;-3.31;76.21;98384.23;1804300;79;20995;-72
2020/12/08 00:15:38;;;;;;;17.65;12.25;;;;;;;-3.29;76.12;98382.89;1804416;79;21530;-70
2020/12/08 00:18:08;;;;;;;16.77;12.63;;;;;;;-3.29;75.95;98373.25;1804403;79;22037;-71
2020/12/08 00:20:36;;;;;;;21.73;13.62;;;;;;;-3.31;75.96;98376.34;1804278;79;21039;-72
2020/12/08 00:23:05;;;;;;;17.45;12.18;;;;;;;-3.31;76.09;98380.29;1804435;79;20912;-70
2020/12/08 00:25:33;;;;;;;19.55;12.75;;;;;;;-3.31;76.02;98376.34;1804292;79;21327;-71
2020/12/08 00:28:01;;;;;;;15.65;11.88;;;;;;;-3.31;75.84;98380.29;1804275;79;20897;-71
2020/12/08 00:30:28;;;;;;;18.60;13.95;;;;;;;-3.27;75.89;98376.70;1804355;79;21805;-71
2020/12/08 00:32:56;;;;;;;18.07;13.13;;;;;;;-3.33;75.82;98372.86;1804269;79;20948;-70
2020/12/08 00:35:23;;;;;;;18.80;13.28;;;;;;;-3.31;75.91;98378.97;1804269;78;21339;-71
2020/12/08 00:37:51;;;;;;;18.27;12.55;;;;;;;-3.40;75.94;98373.84;1804233;79;20984;-71
2020/12/08 00:40:19;;;;;;;16.50;13.00;;;;;;;-3.42;76.30;98373.01;1804451;79;21390;-71
2020/12/08 00:43:04;;;;;;;17.65;13.45;;;;;;;-3.40;76.33;98367.73;1804294;79;21327;-71
2020/12/08 00:45:32;;;;;;;17.17;12.33;;;;;;;-3.40;76.40;98371.22;1804287;79;21407;-71
2020/12/08 00:48:00;;;;;;;16.73;12.95;;;;;;;-3.36;76.56;98372.92;1804407;79;20917;-70
2020/12/08 00:50:28;;;;;;;17.92;12.18;;;;;;;-3.36;76.35;98367.67;1775118;79;20997;-71
2020/12/08 00:52:56;;;;;;;19.23;13.60;;;;;;;-3.33;76.31;98374.16;1804339;79;20920;-70
2020/12/08 00:55:24;;;;;;;15.03;11.85;;;;;;;-3.31;76.32;98378.97;1801923;78;22675;-70
2020/12/08 00:57:52;;;;;;;21.42;13.80;;;;;;;-3.30;76.38;98370.19;1797871;79;20917;-71
2020/12/08 01:00:21;;;;;;;18.45;13.75;;;;;;;-3.27;76.33;98379.80;1776202;79;20933;-71
2020/12/08 01:02:48;;;;;;;14.03;11.97;;;;;;;-3.23;76.31;98377.98;1775702;79;21563;-72
2020/12/08 01:05:17;;;;;;;18.55;13.00;;;;;;;-3.21;76.18;98383.65;1797719;79;20960;-71
2020/12/08 01:07:50;;;;;;;14.87;11.55;;;;;;;-3.25;76.02;98371.44;1797872;79;22669;-71
2020/12/08 01:10:19;;;;;;;16.75;13.48;;;;;;;-3.34;76.09;98373.77;1797328;79;21007;-71
2020/12/08 01:12:47;;;;;;;17.25;12.98;;;;;;;-3.35;76.27;98374.64;1797851;79;21382;-71
2020/12/08 01:15:15;;;;;;;18.37;13.75;;;;;;;-3.33;76.41;98388.61;1797668;79;20921;-70
2020/12/08 01:17:43;;;;;;;16.50;12.25;;;;;;;-3.30;76.42;98372.81;1797861;79;21317;-70
2020/12/08 01:20:11;;;;;;;15.58;13.80;;;;;;;-3.31;76.33;98388.17;1797883;79;22329;-70
2020/12/08 01:22:39;;;;;;;16.85;12.03;;;;;;;-3.31;76.29;98377.66;1797771;79;21023;-70
2020/12/08 01:25:09;;;;;;;17.25;13.18;;;;;;;-3.27;76.42;98378.02;1797777;79;20972;-71
2020/12/08 01:27:39;;;;;;;14.83;12.18;;;;;;;-3.25;76.41;98379.31;1797656;79;20972;-71
2020/12/08 01:30:07;;;;;;;16.17;12.50;;;;;;;-3.22;76.29;98379.27;1797800;79;21027;-70
2020/12/08 01:32:36;;;;;;;13.72;10.50;;;;;;;-3.20;76.10;98377.52;1797623;79;21797;-70
2020/12/08 01:35:07;;;;;;;16.87;12.03;;;;;;;-3.20;75.92;98375.31;1797719;79;21000;-70
2020/12/08 01:37:34;;;;;;;15.63;11.80;;;;;;;-3.17;75.97;98370.02;1797758;79;20921;-70
2020/12/08 01:40:03;;;;;;;14.68;11.03;;;;;;;-3.16;75.89;98370.45;1797777;79;21291;-71
2020/12/08 01:42:31;;;;;;;12.40;10.30;;;;;;;-3.19;75.82;98374.43;1798047;79;21326;-71
2020/12/08 01:44:59;;;;;;;15.13;11.75;;;;;;;-3.16;75.77;98363.88;1775881;79;21198;-71
2020/12/08 01:47:29;;;;;;;17.70;12.03;;;;;;;-3.18;75.90;98363.05;1797853;79;20980;-70
2020/12/08 01:49:58;;;;;;;13.80;10.25;;;;;;;-3.20;75.90;98367.01;1797984;79;21398;-71
2020/12/08 01:52:27;;;;;;;13.32;10.88;;;;;;;-3.20;76.03;98360.86;1797866;79;21035;-71
2020/12/08 01:54:57;;;;;;;16.42;12.28;;;;;;;-3.19;76.02;98350.33;1797924;79;20917;-71
2020/12/08 01:57:27;;;;;;;13.90;11.57;;;;;;;-3.18;76.04;98359.10;1804379;79;21352;-72
2020/12/08 01:59:57;;;;;;;15.60;12.45;;;;;;;-3.15;76.06;98365.62;1804051;79;21027;-71
2020/12/08 02:02:26;;;;;;;17.57;11.95;;;;;;;-3.16;75.86;98362.56;1804450;79;20873;-71
2020/12/08 02:04:55;;;;;;;14.18;11.25;;;;;;;-3.15;75.79;98359.92;1804391;79;20917;-70
2020/12/08 02:07:23;;;;;;;17.82;13.20;;;;;;;-3.16;75.73;98361.25;1804330;79;20920;-70
2020/12/08 02:09:51;;;;;;;18.05;12.55;;;;;;;-3.16;75.86;98353.37;1804421;79;21801;-69
2020/12/08 02:12:23;;;;;;;17.87;12.35;;;;;;;-3.16;75.81;98352.91;1804025;79;20956;-71
2020/12/08 02:14:51;;;;;;;15.32;10.28;;;;;;;-3.15;75.91;98360.38;1804375;78;20913;-70
2020/12/08 02:17:20;;;;;;;13.35;11.15;;;;;;;-3.14;75.86;98346.32;1775303;79;20976;-70
2020/12/08 02:19:49;;;;;;;13.68;11.95;;;;;;;-3.14;75.86;98355.52;1804328;79;20933;-71
2020/12/08 02:22:19;;;;;;;13.65;10.03;;;;;;;-3.15;75.88;98354.66;1804369;79;21796;-70
2020/12/08 02:24:47;;;;;;;13.00;11.60;;;;;;;-3.14;75.81;98352.89;1804359;79;21008;-70
2020/12/08 02:27:14;;;;;;;16.23;12.65;;;;;;;-3.16;76.01;98350.75;1804474;79;21360;-70
2020/12/08 02:29:43;;;;;;;15.58;11.63;;;;;;;-3.18;75.97;98338.95;1804312;79;20901;-70
2020/12/08 02:32:11;;;;;;;14.20;11.88;;;;;;;-3.17;76.08;98346.37;1804325;79;20992;-70
2020/12/08 02:34:40;;;;;;;11.80;10.18;;;;;;;-3.14;76.07;98345.01;1804387;79;21356;-70
2020/12/08 02:37:08;;;;;;;17.15;11.97;;;;;;;-3.13;75.96;98351.55;1804326;79;20988;-71
2020/12/08 02:39:37;;;;;;;14.95;11.28;;;;;;;-3.12;75.91;98349.81;1803135;79;20992;-71
2020/12/08 02:42:05;;;;;;;15.35;11.40;;;;;;;-3.11;75.99;98353.70;1804294;79;20909;-70
2020/12/08 02:44:34;;;;;;;14.60;12.05;;;;;;;-3.10;76.13;98354.59;1804354;79;20896;-70
2020/12/08 02:47:21;;;;;;;16.62;11.80;;;;;;;-3.09;76.14;98360.25;1804412;79;20987;-70
2020/12/08 02:49:50;;;;;;;14.78;12.18;;;;;;;-3.08;76.04;98367.25;1804222;79;20928;-70
2020/12/08 02:52:17;;;;;;;11.33;9.90;;;;;;;-3.06;76.05;98362.83;1804318;79;20983;-71
2020/12/08 02:54:45;;;;;;;15.50;11.88;;;;;;;-3.06;75.82;98365.46;1804339;79;20897;-70
2020/12/08 02:57:14;;;;;;;14.83;11.95;;;;;;;-3.05;75.74;98367.21;1804337;78;20889;-70
2020/12/08 02:59:41;;;;;;;15.08;11.73;;;;;;;-3.07;75.62;98378.20;1804367;79;21359;-71
2020/12/08 03:02:10;;;;;;;15.32;11.55;;;;;;;-3.07;75.59;98361.55;1804265;79;21008;-71
2020/12/08 03:04:40;;;;;;;13.28;10.80;;;;;;;-3.06;75.82;98365.46;1803461;79;21051;-71
2020/12/08 03:07:10;;;;;;;18.40;12.07;;;;;;;-3.07;75.76;98366.38;1804269;79;21012;-71
2020/12/08 03:09:38;;;;;;;15.95;12.18;;;;;;;-3.03;75.62;98366.73;1804339;79;20991;-70
2020/12/08 03:12:08;;;;;;;16.60;10.93;;;;;;;-3.03;75.74;98357.53;1804377;79;21261;-69
2020/12/08 03:14:38;;;;;;;13.90;12.05;;;;;;;-3.02;75.55;98368.94;1804306;78;21044;-70
2020/12/08 03:17:05;;;;;;;12.53;10.98;;;;;;;-3.02;75.60;98361.91;1804304;79;20933;-70
2020/12/08 03:19:34;;;;;;;14.95;11.95;;;;;;;-3.03;75.74;98362.78;1804272;79;20866;-71
2020/12/08 03:22:05;;;;;;;14.65;12.10;;;;;;;-3.01;75.67;98359.72;1804323;79;20901;-71
2020/12/08 03:24:34;;;;;;;13.45;10.93;;;;;;;-3.02;75.74;98361.91;1802461;79;21464;-71
2020/12/08 03:27:03;;;;;;;14.50;12.07;;;;;;;-3.02;75.60;98368.48;1804358;79;21485;-71
2020/12/08 03:29:31;;;;;;;13.98;10.95;;;;;;;-3.02;75.69;98354.02;1775251;79;20992;-71
2020/12/08 03:32:01;;;;;;;14.63;12.58;;;;;;;-3.06;75.63;98360.20;1804266;79;20937;-71
2020/12/08 03:34:30;;;;;;;14.78;11.25;;;;;;;-3.00;75.63;98361.88;1804342;79;20959;-71
2020/12/08 03:36:58;;;;;;;15.48;11.97;;;;;;;-3.01;75.65;98374.17;1804322;79;21645;-70
2020/12/08 03:39:25;;;;;;;14.63;11.40;;;;;;;-3.02;75.77;98372.42;1775133;79;20956;-70
2020/12/08 03:41:59;;;;;;;16.40;11.85;;;;;;;-3.02;75.72;98363.22;1804239;79;20917;-69
2020/12/08 03:44:28;;;;;;;;;;;;;;;-3.01;75.59;98372.86;1776465;79;21012;-70
2020/12/08 03:46:59;;;;;;;15.48;11.28;;;;;;;-2.98;75.63;98375.86;1803749;79;20137;-71
2020/12/08 03:49:27;;;;;;;15.75;11.88;;;;;;;-3.00;75.55;98373.25;1775162;79;21434;-72
2020/12/08 03:52:00;;;;;;;17.37;12.80;;;;;;;-2.97;75.51;98370.58;1804217;79;20927;-71
2020/12/08 03:54:28;;;;;;;13.55;11.20;;;;;;;-2.98;75.50;98367.98;1804281;78;20960;-71
2020/12/08 03:56:56;;;;;;;14.58;12.10;;;;;;;-2.97;75.42;98367.95;1800605;78;20869;-71
2020/12/08 03:59:24;;;;;;;15.18;12.03;;;;;;;-2.95;75.38;98372.77;1797824;79;20920;-71
2020/12/08 04:01:54;;;;;;;16.42;13.13;;;;;;;-2.94;75.24;98380.19;1796829;79;21815;-71
2020/12/08 04:04:22;;;;;;;15.05;11.38;;;;;;;-2.95;75.15;98366.61;1797762;79;20936;-71
2020/12/08 04:06:50;;;;;;;14.45;12.13;;;;;;;-2.93;75.33;98381.94;1797821;79;20960;-71
2020/12/08 04:09:18;;;;;;;14.18;10.95;;;;;;;-2.93;75.24;98374.05;1797707;79;20933;-72
2020/12/08 04:11:45;;;;;;;15.20;12.00;;;;;;;-2.93;75.15;98368.34;1797816;79;20917;-71
2020/12/08 04:14:14;;;;;;;15.18;11.38;;;;;;;-2.93;74.98;98374.91;1797849;79;21367;-68
2020/12/08 04:16:46;;;;;;;12.68;11.03;;;;;;;-2.94;74.99;98375.79;1797675;79;20878;-71
2020/12/08 04:19:16;;;;;;;13.48;10.90;;;;;;;-2.92;74.99;98371.41;1797854;79;20917;-71
2020/12/08 04:21:45;;;;;;;14.73;12.00;;;;;;;-2.88;74.96;98377.92;1797749;79;20901;-71
2020/12/08 04:24:15;;;;;;;13.13;9.93;;;;;;;-2.89;74.66;98367.84;1797602;79;21358;-71
2020/12/08 04:26:45;;;;;;;12.58;10.65;;;;;;;-2.89;74.67;98364.35;1797934;79;22021;-71
2020/12/08 04:29:15;;;;;;;12.70;11.03;;;;;;;-2.88;74.73;98368.73;1797579;79;20901;-71
2020/12/08 04:31:44;;;;;;;13.72;11.00;;;;;;;-2.91;74.76;98366.55;1797722;79;20925;-71
2020/12/08 04:34:13;;;;;;;12.55;9.80;;;;;;;-2.91;74.83;98370.48;1797848;79;21339;-71
2020/12/08 04:36:40;;;;;;;14.23;11.70;;;;;;;-2.92;74.64;98371.83;1797766;79;20995;-71
2020/12/08 04:39:08;;;;;;;12.45;11.05;;;;;;;-2.93;74.73;98374.91;1797814;79;21370;-71
2020/12/08 04:41:36;;;;;;;13.38;9.95;;;;;;;-2.96;74.53;98385.47;1797751;79;21470;-71
2020/12/08 04:44:05;;;;;;;13.85;10.70;;;;;;;-2.92;74.36;98379.28;1797827;79;20929;-71
2020/12/08 04:46:34;;;;;;;12.35;10.43;;;;;;;-2.92;74.48;98381.91;1797778;79;20873;-70
2020/12/08 04:49:02;;;;;;;15.43;10.25;;;;;;;-2.89;74.31;98379.66;1797763;79;20928;-72
2020/12/08 04:51:32;;;;;;;12.03;10.40;;;;;;;-2.89;74.35;98367.84;1797760;79;21833;-71
2020/12/08 04:54:00;;;;;;;14.90;10.50;;;;;;;-2.87;74.44;98378.33;1797757;79;20936;-71
2020/12/08 04:56:28;;;;;;;12.73;11.25;;;;;;;-2.86;74.46;98372.19;1797742;79;20921;-71
2020/12/08 04:58:55;;;;;;;12.20;10.45;;;;;;;-2.84;74.62;98377.82;1797804;79;20925;-70
2020/12/08 05:01:27;;;;;;;12.70;11.30;;;;;;;-2.86;74.59;98380.08;1797742;79;20893;-70
2020/12/08 05:03:58;;;;;;;14.40;11.08;;;;;;;-2.88;74.65;98381.87;1797775;79;21364;-71
2020/12/08 05:06:29;;;;;;;18.00;11.10;;;;;;;-2.86;74.68;98378.77;1797219;79;20948;-71
2020/12/08 05:09:06;;;;;;;15.25;12.05;;;;;;;-2.84;74.62;98380.91;1797824;79;21031;-72
2020/12/08 05:11:35;;;;;;;12.30;10.43;;;;;;;-2.85;74.72;98385.31;1797748;79;20909;-71
2020/12/08 05:14:05;;;;;;;12.20;10.75;;;;;;;-2.85;74.70;98380.47;1797730;79;20929;-71
2020/12/08 05:16:32;;;;;;;12.47;9.73;;;;;;;-2.86;74.67;98380.93;1797811;79;21354;-70
2020/12/08 05:19:10;;;;;;;11.12;9.98;;;;;;;-2.84;74.57;98386.16;1797889;79;20965;-70
2020/12/08 05:21:51;;;;;;;13.93;10.30;;;;;;;-2.89;74.66;98374.86;1797931;79;20992;-70
2020/12/08 05:24:26;;;;;;;13.58;10.58;;;;;;;-2.89;74.82;98378.34;1797955;79;20965;-71
2020/12/08 05:27:00;;;;;;;17.45;10.68;;;;;;;-2.87;74.80;98384.89;1797925;79;20913;-70
2020/12/08 05:29:28;;;;;;;18.17;11.80;;;;;;;-2.87;74.76;98378.33;1798057;79;21425;-70
2020/12/08 05:31:55;;;;;;;20.35;13.58;;;;;;;-2.91;74.87;98373.12;1797876;79;20960;-71
2020/12/08 05:34:24;;;;;;;11.85;9.40;;;;;;;-2.91;74.88;98391.52;1798066;79;21315;-72
2020/12/08 05:36:53;;;;;;;13.38;10.70;;;;;;;-2.89;74.87;98382.75;1797845;79;20925;-70
2020/12/08 05:39:22;;;;;;;16.93;10.30;;;;;;;-2.91;74.78;98375.75;1797886;79;20929;-71
2020/12/08 05:41:50;;;;;;;13.68;10.72;;;;;;;-2.88;74.80;98377.92;1797862;79;21325;-72
2020/12/08 05:44:25;;;;;;;15.90;12.47;;;;;;;-2.86;74.75;98382.70;1797971;79;20997;-72
2020/12/08 05:46:54;;;;;;;16.35;12.50;;;;;;;-2.86;74.72;98376.13;1797979;79;20929;-70
2020/12/08 05:49:22;;;;;;;16.73;12.33;;;;;;;-2.84;74.88;98375.66;1797897;79;21318;-70
2020/12/08 05:51:50;;;;;;;25.82;12.93;;;;;;;-2.84;74.83;98383.53;1797982;79;21398;-70
2020/12/08 05:54:20;;;;;;;18.23;13.00;;;;;;;-2.82;74.57;98372.54;1797930;79;21427;-72
2020/12/08 05:56:50;;;;;;;16.00;11.35;;;;;;;-2.83;74.40;98378.26;1801269;79;20999;-72
2020/12/08 05:59:27;;;;;;;18.10;12.07;;;;;;;-2.80;74.41;98382.61;1815543;79;21007;-72
2020/12/08 06:01:58;;;;;;;16.52;11.30;;;;;;;-2.82;74.59;98385.69;1815456;78;20928;-72
2020/12/08 06:04:25;;;;;;;13.28;11.18;;;;;;;-2.80;74.52;98373.41;1815459;79;21437;-70
2020/12/08 06:06:56;;;;;;;13.55;12.18;;;;;;;-2.82;74.54;98377.37;1815505;79;21353;-71
2020/12/08 06:09:30;;;;;;;17.82;12.50;;;;;;;-2.83;74.52;98380.03;1815471;79;20884;-71
2020/12/08 06:12:01;;;;;;;17.42;11.60;;;;;;;-2.80;74.58;98379.98;1815457;79;21022;-72
2020/12/08 06:14:34;;;;;;;12.43;11.08;;;;;;;-2.82;74.72;98392.26;1786193;79;21015;-71
2020/12/08 06:17:06;;;;;;;16.75;11.40;;;;;;;-2.81;74.75;98396.63;1815453;78;20911;-71
2020/12/08 06:19:35;;;;;;;17.17;11.03;;;;;;;-2.85;74.85;98392.30;1815601;79;21342;-72
2020/12/08 06:22:12;;;;;;;14.15;9.88;;;;;;;-2.88;74.80;98373.98;1815506;79;20944;-70
2020/12/08 06:24:52;;;;;;;14.63;11.33;;;;;;;-2.87;74.73;98401.53;1815022;79;21393;-70
2020/12/08 06:27:23;;;;;;;13.80;11.15;;;;;;;-2.88;74.87;98395.87;1815539;79;20895;-63
2020/12/08 06:29:54;;;;;;;17.60;11.75;;;;;;;-2.87;74.97;98396.73;1815513;79;21405;-73
2020/12/08 06:32:27;;;;;;;18.25;11.95;;;;;;;-2.84;75.52;98407.20;1815456;78;21299;-71
2020/12/08 06:35:11;;;;;;;17.25;12.05;;;;;;;-2.82;75.15;98412.86;1815493;79;20880;-71
2020/12/08 06:37:52;;;;;;;16.25;12.37;;;;;;;-2.86;75.03;98399.33;1815450;79;20963;-73
2020/12/08 06:40:24;;;;;;;18.07;14.40;;;;;;;-2.82;75.04;98399.72;1809533;79;20972;-72
2020/12/08 06:42:52;;;;;;;20.02;13.32;;;;;;;-2.80;75.11;98399.70;1815506;79;20912;-71
2020/12/08 06:45:23;;;;;;;22.22;14.33;;;;;;;-2.79;75.17;98395.73;1815594;79;21756;-72
2020/12/08 06:47:51;;;;;;;19.70;12.78;;;;;;;-2.81;75.25;98407.15;1815348;79;20980;-73
2020/12/08 06:50:31;;;;;;;20.97;13.10;;;;;;;-2.79;75.27;98405.35;1815471;79;20991;-67
2020/12/08 06:53:01;;;;;;;17.25;14.43;;;;;;;-2.77;75.66;98410.16;1815435;79;20963;-74
2020/12/08 06:55:30;;;;;;;20.20;13.83;;;;;;;-2.77;75.51;98408.39;1815511;79;21405;-75
2020/12/08 06:58:04;;;;;;;17.25;13.08;;;;;;;-2.74;75.43;98414.92;1806001;79;21869;-77
2020/12/08 07:00:32;;;;;;;21.20;15.78;;;;;;;-2.73;75.57;98415.78;1797948;79;20960;-72
2020/12/08 07:03:01;;;;;;;14.65;12.63;;;;;;;-2.70;75.43;98405.67;1797751;79;21007;-76
2020/12/08 07:05:30;;;;;;;26.05;15.25;;;;;;;-2.66;75.40;98408.69;1797830;79;20996;-81
2020/12/08 07:08:02;;;;;;;17.37;13.68;;;;;;;-2.64;75.34;98413.47;1776524;79;20968;-78
2020/12/08 07:10:29;;;;;;;23.98;14.85;;;;;;;-2.60;75.31;98412.50;1797873;79;21406;-80
2020/12/08 07:12:56;;;;;;;19.42;12.85;;;;;;;-2.58;75.22;98409.42;1797856;79;20937;-84
2020/12/08 07:15:27;;;;;;;25.97;13.80;;;;;;;-2.53;75.27;98414.61;1797863;79;20929;-81
2020/12/08 07:18:05;;;;;;;20.00;13.83;;;;;;;-2.58;75.05;98418.17;1797918;79;21338;-84
2020/12/08 07:20:34;;;;;;;22.00;15.28;;;;;;;-2.61;75.20;98427.42;1797885;79;21024;-68
2020/12/08 07:23:04;;;;;;;19.70;13.68;;;;;;;-2.58;75.22;98423.43;1797908;79;21191;-79
2020/12/08 07:25:33;;;;;;;18.70;14.68;;;;;;;-2.53;75.35;98425.13;1797855;79;20988;-82
2020/12/08 07:28:01;;;;;;;17.98;13.88;;;;;;;-2.50;75.06;98414.56;1797828;79;20979;-80
2020/12/08 07:30:29;;;;;;;22.55;14.63;;;;;;;-2.46;74.89;98425.43;1797851;79;20932;-80
2020/12/08 07:33:09;;;;;;;17.60;13.55;;;;;;;-2.41;74.76;98419.67;1797919;79;20917;-80
2020/12/08 07:35:37;;;;;;;25.25;16.40;;;;;;;-2.37;74.64;98421.33;1797827;79;21881;-78
2020/12/08 07:38:04;;;;;;;18.10;13.85;;;;;;;-2.32;74.41;98423.89;1797870;79;21481;-79
2020/12/08 07:40:38;;;;;;;18.15;14.30;;;;;;;-2.30;74.29;98425.61;1797878;79;21529;-80
2020/12/08 07:43:07;;;;;;;18.37;13.25;;;;;;;-2.28;74.35;98426.44;1797848;79;21466;-81
2020/12/08 07:45:45;;;;;;;18.75;14.40;;;;;;;-2.27;74.09;98430.82;1797992;79;21319;-83
2020/12/08 07:48:18;;;;;;;17.77;14.58;;;;;;;-2.24;74.05;98420.67;1797921;79;22223;-82
2020/12/08 07:50:45;;;;;;;19.42;13.85;;;;;;;-2.25;74.25;98417.18;1798046;79;20885;-83
2020/12/08 07:53:15;;;;;;;18.32;13.30;;;;;;;-2.24;74.01;98414.98;1797848;79;20916;-83
2020/12/08 07:55:45;;;;;;;22.95;13.98;;;;;;;-2.18;73.90;98428.46;1797741;79;20909;-84
2020/12/08 07:58:12;;;;;;;21.60;13.98;;;;;;;-2.15;73.82;98419.66;1801062;78;21398;-81
2020/12/08 08:00:41;;;;;;;20.60;15.15;;;;;;;-2.14;73.68;98426.20;1804333;79;22075;-79
2020/12/08 08:04:23;;;;;;;24.18;15.95;;;;;;;-2.10;73.67;98428.33;1804007;79;21008;-76
2020/12/08 08:06:52;;;;;;;19.40;13.93;;;;;;;-2.09;73.67;98423.50;1804270;79;20983;-79
2020/12/08 08:09:23;;;;;;;19.25;14.18;;;;;;;-2.06;74.71;98420.81;1804221;79;20988;-80
2020/12/08 08:11:52;;;;;;;20.40;14.55;;;;;;;-2.11;73.75;98420.00;1804304;78;21375;-78
2020/12/08 08:14:20;;;;;;;19.92;13.50;;;;;;;-2.12;73.56;98415.66;1804379;79;22659;-78
2020/12/08 08:16:51;;;;;;;19.37;13.88;;;;;;;-2.08;73.49;98414.69;1801543;79;21003;-78
2020/12/08 08:19:18;;;;;;;18.80;14.65;;;;;;;-2.04;73.49;98419.01;1804277;79;21031;-78
2020/12/08 08:21:48;;;;;;;17.40;12.68;;;;;;;-2.02;73.23;98422.47;1804221;79;20909;-77
2020/12/08 08:24:15;;;;;;;19.12;13.28;;;;;;;-1.97;73.17;98427.22;1804345;79;20921;-78
2020/12/08 08:26:46;;;;;;;21.80;13.53;;;;;;;-1.97;72.89;98425.91;1804314;79;23500;-78
2020/12/08 08:29:15;;;;;;;20.50;14.65;;;;;;;-1.91;73.07;98417.87;1804292;78;20944;-77
2020/12/08 08:31:43;;;;;;;18.73;14.18;;;;;;;-1.88;72.88;98427.03;1804261;79;20921;-79
2020/12/08 08:34:11;;;;;;;23.73;18.67;;;;;;;-1.86;72.76;98424.37;1804383;79;21418;-78
2020/12/08 08:36:51;;;;;;;16.67;13.65;;;;;;;-1.80;72.78;98423.39;1804271;79;20972;-80
2020/12/08 08:39:20;;;;;;;15.25;12.50;;;;;;;-1.79;72.44;98431.72;1804316;79;21359;-78
2020/12/08 08:41:48;;;;;;;16.37;13.10;;;;;;;-1.74;72.55;98432.49;1804165;79;21023;-79
2020/12/08 08:44:16;;;;;;;19.23;13.13;;;;;;;-1.75;72.50;98422.84;1804321;79;20889;-78
2020/12/08 08:46:44;;;;;;;22.40;13.28;;;;;;;-1.76;72.61;98425.94;1804356;79;21311;-80
2020/12/08 08:49:22;;;;;;;16.50;13.45;;;;;;;-1.76;72.58;98418.50;1804299;79;20921;-80
2020/12/08 08:51:51;;;;;;;14.07;11.93;;;;;;;-1.74;72.54;98430.72;1769026;79;21803;-79
2020/12/08 08:54:19;;;;;;;16.45;12.25;;;;;;;-1.73;72.60;98428.97;1804225;79;20996;-78
2020/12/08 08:56:47;;;;;;;20.48;15.13;;;;;;;-1.69;72.81;98425.36;1804300;79;20908;-80
2020/12/08 08:59:15;;;;;;;20.85;13.95;;;;;;;-1.68;72.77;98424.02;1799117;77;20873;-77
2020/12/08 09:01:43;;;;;;;24.32;14.65;;;;;;;-1.67;72.86;98420.92;1797774;79;20913;-77
2020/12/08 09:04:11;;;;;;;20.17;14.05;;;;;;;-1.66;72.84;98435.38;1797817;79;21805;-77
2020/12/08 09:06:39;;;;;;;20.62;13.55;;;;;;;-1.61;72.69;98434.44;1797759;79;20984;-78
2020/12/08 09:09:07;;;;;;;19.87;13.08;;;;;;;-1.62;72.61;98428.31;1797846;79;20945;-82
2020/12/08 09:11:35;;;;;;;34.15;19.82;;;;;;;-1.59;72.65;98434.84;1797711;79;20901;-78
2020/12/08 09:14:06;;;;;;;18.62;13.58;;;;;;;-1.57;73.66;98430.39;1797759;79;20975;-72
2020/12/08 09:16:40;;;;;;;28.30;14.68;;;;;;;-1.55;72.98;98434.31;1797795;79;22238;-74
2020/12/08 09:19:12;;;;;;;18.73;13.45;;;;;;;-1.54;72.89;98431.66;1797677;79;20945;-85
2020/12/08 09:21:41;;;;;;;25.82;15.50;;;;;;;-1.52;72.68;98432.48;1797783;79;20957;-85
2020/12/08 09:24:10;;;;;;;18.12;13.58;;;;;;;-1.50;72.90;98432.02;1797903;79;21430;-75
2020/12/08 09:26:42;;;;;;;14.65;13.05;;;;;;;-1.47;72.83;98437.23;1797769;79;20877;-80
2020/12/08 09:29:12;;;;;;;17.32;14.07;;;;;;;-1.41;72.84;98432.72;1797903;79;21792;-72
2020/12/08 09:31:41;;;;;;;22.25;14.63;;;;;;;-1.41;72.46;98441.48;1797681;79;21414;-70
2020/12/08 09:34:09;;;;;;;18.90;13.65;;;;;;;-1.39;72.37;98441.45;1797804;79;21430;-73
2020/12/08 09:36:43;;;;;;;20.08;14.15;;;;;;;-1.39;72.54;98436.19;1797762;79;20941;-71
2020/12/08 09:39:11;;;;;;;25.05;15.18;;;;;;;-1.41;72.36;98436.22;1797795;79;20917;-71
2020/12/08 09:41:40;;;;;;;22.25;14.75;;;;;;;-1.38;72.69;98431.34;1797671;79;21811;-74
2020/12/08 09:44:10;;;;;;;22.20;14.63;;;;;;;-1.42;72.26;98436.25;1797750;79;21349;-72
2020/12/08 09:46:38;;;;;;;20.32;14.35;;;;;;;-1.42;72.46;98434.93;1797885;79;20921;-73
2020/12/08 09:49:07;;;;;;;21.90;14.23;;;;;;;-1.48;72.32;98434.16;1797704;79;21343;-71
2020/12/08 09:51:35;;;;;;;24.47;14.73;;;;;;;-1.48;72.60;98440.75;1797751;79;20921;-72
2020/12/08 09:54:06;;;;;;;16.67;13.13;;;;;;;-1.47;72.85;98438.97;1797793;79;21362;-74
2020/12/08 09:56:34;;;;;;;17.82;12.65;;;;;;;-1.46;72.89;98450.80;1797706;79;21331;-69
2020/12/08 09:59:02;;;;;;;26.52;17.55;;;;;;;-1.43;72.95;98453.83;1797743;79;21343;-70
2020/12/08 10:01:33;;;;;;;19.75;14.60;;;;;;;-1.43;72.88;98445.04;1797813;79;20981;-69
2020/12/08 10:04:01;;;;;;;22.75;16.23;;;;;;;-1.43;72.94;98452.94;1797971;79;20984;-70
2020/12/08 10:06:30;;;;;;;18.12;14.10;;;;;;;-1.40;72.78;98450.25;1797913;79;21444;-70
2020/12/08 10:08:58;;;;;;;18.45;13.75;;;;;;;-1.37;72.79;98454.14;1797863;79;21047;-72
2020/12/08 10:11:29;;;;;;;24.20;16.35;;;;;;;-1.34;72.77;98453.66;1797942;79;21537;-69
2020/12/08 10:13:57;;;;;;;26.80;15.00;;;;;;;-1.32;72.73;98456.25;1797976;79;20917;-70
2020/12/08 10:16:25;;;;;;;20.40;15.85;;;;;;;-1.31;72.77;98444.80;1797874;79;20984;-68
2020/12/08 10:18:54;;;;;;;26.70;15.20;;;;;;;-1.26;72.86;98445.59;1797935;79;21432;-69
2020/12/08 10:21:24;;;;;;;21.15;15.50;;;;;;;-1.24;72.64;98438.51;1797819;79;20890;-69
2020/12/08 10:23:53;;;;;;;19.55;15.72;;;;;;;-1.18;72.63;98447.61;1797947;79;20972;-65
2020/12/08 10:26:23;;;;;;;23.27;14.90;;;;;;;-1.14;72.55;98450.58;1797826;79;20985;-72
2020/12/08 10:28:51;;;;;;;26.45;15.18;;;;;;;-1.11;72.00;98441.28;1797855;79;20985;-74
2020/12/08 10:31:20;;;;;;;21.33;14.63;;;;;;;-1.05;72.06;98438.13;1797991;79;21997;-72
2020/12/08 10:33:48;;;;;;;18.50;15.28;;;;;;;-1.03;71.94;98441.58;1797854;79;21019;-73
2020/12/08 10:36:16;;;;;;;21.82;15.25;;;;;;;-1.08;71.83;98436.41;1797873;79;20913;-73
2020/12/08 10:38:44;;;;;;;24.75;15.40;;;;;;;-1.05;72.03;98431.53;1797859;79;20909;-72
2020/12/08 10:41:12;;;;;;;20.68;14.87;;;;;;;-1.06;71.94;98441.64;1797838;79;20988;-70
2020/12/08 10:43:40;;;;;;;21.20;14.90;;;;;;;-1.04;72.23;98441.16;1797949;79;21801;-68
2020/12/08 10:46:11;;;;;;;20.05;14.98;;;;;;;-1.05;72.32;98446.03;1797780;79;21051;-79
2020/12/08 10:48:40;;;;;;;17.40;13.88;;;;;;;-1.08;71.79;98442.14;1797916;79;20973;-77
2020/12/08 10:51:08;;;;;;;25.70;15.43;;;;;;;-1.04;71.76;98458.29;1797817;79;21008;-75
2020/12/08 10:53:36;;;;;;;21.77;14.63;;;;;;;-1.07;71.81;98445.17;1798035;79;20913;-76
2020/12/08 10:56:04;;;;;;;22.22;16.00;;;;;;;-1.07;71.88;98449.13;1797857;79;21868;-78
2020/12/08 10:58:33;;;;;;;17.45;14.00;;;;;;;-1.11;71.75;98455.78;1797848;79;21429;-77
2020/12/08 11:01:01;;;;;;;25.27;15.90;;;;;;;-1.12;71.97;98451.43;1797948;79;20980;-79
2020/12/08 11:03:29;;;;;;;21.80;15.20;;;;;;;-1.14;71.92;98459.80;1797869;79;20973;-77
2020/12/08 11:05:58;;;;;;;21.10;14.33;;;;;;;-1.15;72.00;98460.72;1797927;79;21024;-77
2020/12/08 11:08:26;;;;;;;24.40;16.10;;;;;;;-1.18;72.02;98454.20;1797849;79;21316;-81
2020/12/08 11:10:54;;;;;;;23.30;16.40;;;;;;;-1.19;72.21;98452.91;1797817;79;20949;-69
2020/12/08 11:13:24;;;;;;;23.83;14.85;;;;;;;-1.19;72.28;98453.77;1797924;79;20996;-77
2020/12/08 11:15:54;;;;;;;25.27;15.58;;;;;;;-1.21;72.34;98458.67;1797216;79;21339;-76
2020/12/08 11:18:23;;;;;;;20.60;15.30;;;;;;;-1.23;72.41;98461.34;1797957;79;20901;-73
2020/12/08 11:20:52;;;;;;;26.95;17.05;;;;;;;-1.24;72.60;98458.73;1797823;79;21347;-72
2020/12/08 11:23:21;;;;;;;18.75;15.03;;;;;;;-1.23;72.62;98463.97;1797615;79;20988;-74
2020/12/08 11:25:49;;;;;;;21.45;13.85;;;;;;;-1.27;72.59;98460.97;1797864;79;20992;-73
2020/12/08 11:28:19;;;;;;;18.92;13.50;;;;;;;-1.25;72.60;98463.11;1797787;79;21063;-73